createdAt,value
2022-09-11T00:01:43.317Z,14.96
2022-09-11T00:04:11.395Z,14.97
2022-09-11T00:06:39.995Z,14.99
2022-09-11T00:09:08.451Z,15.01
2022-09-11T00:11:41.864Z,15.01
2022-09-11T00:14:13.936Z,15.02
2022-09-11T00:16:45.835Z,15.02
2022-09-11T00:19:16.758Z,15.03
2022-09-11T00:21:46.609Z,15.03
2022-09-11T00:24:14.729Z,15.03
2022-09-11T00:26:42.754Z,15.01
2022-09-11T00:29:10.843Z,14.97
2022-09-11T00:31:38.930Z,14.91
2022-09-11T00:34:07.343Z,14.83
2022-09-11T00:36:41.427Z,14.73
2022-09-11T00:39:11.767Z,14.66
2022-09-11T00:41:42.902Z,14.65
2022-09-11T00:44:13.693Z,14.63
2022-09-11T00:46:50.793Z,14.61
2022-09-11T00:49:46.454Z,14.59
2022-09-11T00:52:17.486Z,14.55
2022-09-11T00:55:00.109Z,14.53
2022-09-11T00:57:33.138Z,14.53
2022-09-11T01:00:02.489Z,14.53
2022-09-11T01:02:34.688Z,14.55
2022-09-11T01:05:04.576Z,14.55
2022-09-11T01:07:34.818Z,14.58
2022-09-11T01:10:05.734Z,14.61
2022-09-11T01:12:49.216Z,14.64
2022-09-11T01:15:36.078Z,14.66
2022-09-11T01:18:17.121Z,14.65
2022-09-11T01:20:57.011Z,14.63
2022-09-11T01:23:28.313Z,14.62
2022-09-11T01:26:02.350Z,14.61
2022-09-11T01:28:40.146Z,14.60
2022-09-11T01:31:16.264Z,14.60
2022-09-11T01:33:51.059Z,14.60
2022-09-11T01:36:29.011Z,14.58
2022-09-11T01:39:03.907Z,14.56
2022-09-11T01:41:46.197Z,14.53
2022-09-11T01:44:28.970Z,14.50
2022-09-11T01:46:58.871Z,14.45
2022-09-11T01:49:42.170Z,14.39
2022-09-11T01:52:15.270Z,14.31
2022-09-11T01:54:50.067Z,14.23
2022-09-11T01:57:30.634Z,14.18
2022-09-11T02:00:02.450Z,14.13
2022-09-11T02:02:37.140Z,14.09
2022-09-11T02:05:24.116Z,14.07
2022-09-11T02:08:01.766Z,14.05
2022-09-11T02:10:36.958Z,14.02
2022-09-11T02:13:34.744Z,13.94
2022-09-11T02:16:32.332Z,13.85
2022-09-11T02:19:06.613Z,13.80
2022-09-11T02:21:35.866Z,13.78
2022-09-11T02:24:04.869Z,13.78
2022-09-11T02:26:38.808Z,13.77
2022-09-11T02:29:08.248Z,13.77
2022-09-11T02:31:36.720Z,13.75
2022-09-11T02:34:04.764Z,13.70
2022-09-11T02:36:39.221Z,13.66
2022-09-11T02:39:37.678Z,13.64
2022-09-11T02:42:41.097Z,13.59
2022-09-11T02:45:31.332Z,13.52
2022-09-11T02:48:02.241Z,13.50
2022-09-11T02:50:47.113Z,13.49
2022-09-11T02:53:26.757Z,13.48
2022-09-11T02:57:09.894Z,13.47
2022-09-11T02:59:48.767Z,13.45
2022-09-11T03:02:18.524Z,13.43
2022-09-11T03:04:48.743Z,13.38
2022-09-11T03:07:16.871Z,13.34
2022-09-11T03:09:46.009Z,13.33
2022-09-11T03:12:18.867Z,13.30
2022-09-11T03:14:49.744Z,13.29
2022-09-11T03:17:17.783Z,13.30
2022-09-11T03:19:46.481Z,13.30
2022-09-11T03:22:15.036Z,13.30
2022-09-11T03:24:43.620Z,13.31
2022-09-11T03:27:12.032Z,13.33
2022-09-11T03:29:41.015Z,13.32
2022-09-11T03:32:10.353Z,13.29
2022-09-11T03:34:38.907Z,13.29
2022-09-11T03:37:06.828Z,13.31
2022-09-11T03:39:35.128Z,13.32
2022-09-11T03:42:03.275Z,13.31
2022-09-11T03:44:31.412Z,13.32
2022-09-11T03:47:00.379Z,13.30
2022-09-11T03:49:28.426Z,13.29
2022-09-11T03:51:57.239Z,13.28
2022-09-11T03:54:25.296Z,13.23
2022-09-11T03:56:53.582Z,13.21
2022-09-11T03:59:21.898Z,13.16
2022-09-11T04:01:51.039Z,13.11
2022-09-11T04:04:20.667Z,13.05
2022-09-11T04:06:48.732Z,13.02
2022-09-11T04:09:17.944Z,13.00
2022-09-11T04:11:49.076Z,12.96
2022-09-11T04:14:22.710Z,12.91
2022-09-11T04:16:51.321Z,12.86
2022-09-11T04:19:21.335Z,12.79
2022-09-11T04:21:49.450Z,12.76
2022-09-11T04:24:17.526Z,12.73
2022-09-11T04:26:47.180Z,12.72
2022-09-11T04:29:26.709Z,12.69
2022-09-11T04:31:56.328Z,12.69
2022-09-11T04:34:26.574Z,12.69
2022-09-11T04:36:56.340Z,12.71
2022-09-11T04:39:26.817Z,12.73
2022-09-11T04:41:55.417Z,12.75
2022-09-11T04:44:26.383Z,12.77
2022-09-11T04:46:56.580Z,12.81
2022-09-11T04:49:25.019Z,12.82
2022-09-11T04:51:53.112Z,12.83
2022-09-11T04:54:22.363Z,12.84
2022-09-11T04:56:51.649Z,12.85
2022-09-11T04:59:22.625Z,12.85
2022-09-11T05:02:11.003Z,12.89
2022-09-11T05:04:41.960Z,12.91
2022-09-11T05:07:14.612Z,12.94
2022-09-11T05:09:44.231Z,12.98
2022-09-11T05:12:12.334Z,13.00
2022-09-11T05:14:43.068Z,13.03
2022-09-11T05:17:13.633Z,13.09
2022-09-11T05:19:43.566Z,13.15
2022-09-11T05:22:12.013Z,13.22
2022-09-11T05:24:42.886Z,13.29
2022-09-11T05:27:12.046Z,13.36
2022-09-11T05:29:41.428Z,13.42
2022-09-11T05:32:13.007Z,13.49
2022-09-11T05:34:42.890Z,13.54
2022-09-11T05:37:12.709Z,13.62
2022-09-11T05:39:44.491Z,13.70
2022-09-11T05:42:17.487Z,13.76
2022-09-11T05:44:49.376Z,13.83
2022-09-11T05:47:17.841Z,13.90
2022-09-11T05:49:49.868Z,13.97
2022-09-11T05:52:20.383Z,14.06
2022-09-11T05:54:50.098Z,14.13
2022-09-11T05:57:20.064Z,14.20
2022-09-11T05:59:48.370Z,14.27
2022-09-11T06:02:16.581Z,14.34
2022-09-11T06:04:48.300Z,14.39
2022-09-11T06:07:16.278Z,14.43
2022-09-11T06:09:46.804Z,14.47
2022-09-11T06:12:14.817Z,14.52
2022-09-11T06:14:44.551Z,14.57
2022-09-11T06:17:13.014Z,14.62
2022-09-11T06:19:40.983Z,14.66
2022-09-11T06:22:09.152Z,14.71
2022-09-11T06:24:48.198Z,14.79
2022-09-11T06:27:18.477Z,14.87
2022-09-11T06:29:47.475Z,14.95
2022-09-11T06:32:20.062Z,15.04
2022-09-11T06:34:48.468Z,15.13
2022-09-11T06:37:17.004Z,15.21
2022-09-11T06:39:46.409Z,15.30
2022-09-11T06:42:19.430Z,15.38
2022-09-11T06:44:50.984Z,15.42
2022-09-11T06:47:19.468Z,15.50
2022-09-11T06:49:47.671Z,15.60
2022-09-11T06:52:34.704Z,15.71
2022-09-11T06:55:23.004Z,15.83
2022-09-11T06:57:58.713Z,15.93
2022-09-11T07:00:28.754Z,16.04
2022-09-11T07:02:57.224Z,16.13
2022-09-11T07:05:26.109Z,16.23
2022-09-11T07:07:55.624Z,16.32
2022-09-11T07:10:24.774Z,16.41
2022-09-11T07:12:58.203Z,16.49
2022-09-11T07:15:26.269Z,16.59
2022-09-11T07:17:55.510Z,16.72
2022-09-11T07:20:23.698Z,16.86
2022-09-11T07:22:51.841Z,16.99
2022-09-11T07:25:20.716Z,17.15
2022-09-11T07:27:49.726Z,17.29
2022-09-11T07:30:18.712Z,17.41
2022-09-11T07:32:50.143Z,17.53
2022-09-11T07:35:22.320Z,17.65
2022-09-11T07:37:52.962Z,17.79
2022-09-11T07:40:24.844Z,17.91
2022-09-11T07:42:54.140Z,18.02
2022-09-11T07:45:23.509Z,18.08
2022-09-11T07:47:52.064Z,18.13
2022-09-11T07:50:20.118Z,18.16
2022-09-11T07:52:48.575Z,18.16
2022-09-11T07:55:17.146Z,18.16
2022-09-11T07:57:46.673Z,18.19
2022-09-11T08:00:16.671Z,18.21
2022-09-11T08:02:58.214Z,18.28
2022-09-11T08:05:31.485Z,18.38
2022-09-11T08:07:59.795Z,18.49
2022-09-11T08:10:28.652Z,18.61
2022-09-11T08:12:59.805Z,18.71
2022-09-11T08:15:32.287Z,18.82
2022-09-11T08:18:01.163Z,18.91
2022-09-11T08:20:32.219Z,18.99
2022-09-11T08:23:00.662Z,19.06
2022-09-11T08:25:29.734Z,19.12
2022-09-11T08:27:58.244Z,19.18
2022-09-11T08:30:27.002Z,19.25
2022-09-11T08:32:55.339Z,19.32
2022-09-11T08:35:23.692Z,19.39
2022-09-11T08:37:55.150Z,19.47
2022-09-11T08:40:23.901Z,19.58
2022-09-11T08:42:55.767Z,19.76
2022-09-11T08:45:30.055Z,19.90
2022-09-11T08:48:01.582Z,19.98
2022-09-11T08:50:41.410Z,20.05
2022-09-11T08:53:16.429Z,20.10
2022-09-11T08:55:52.967Z,20.12
2022-09-11T08:58:37.250Z,20.13
2022-09-11T09:01:12.789Z,20.12
2022-09-11T09:03:47.558Z,20.11
2022-09-11T09:06:27.063Z,20.16
2022-09-11T09:09:08.429Z,20.24
2022-09-11T09:11:47.508Z,20.20
2022-09-11T09:14:44.808Z,20.14
2022-09-11T09:17:20.206Z,20.05
2022-09-11T09:20:00.612Z,19.91
2022-09-11T09:22:47.195Z,19.79
2022-09-11T09:25:20.971Z,19.67
2022-09-11T09:28:02.158Z,19.58
2022-09-11T09:30:42.842Z,19.52
2022-09-11T09:33:29.289Z,19.48
2022-09-11T09:36:00.165Z,19.51
2022-09-11T09:38:31.763Z,19.56
2022-09-11T09:41:18.449Z,19.58
2022-09-11T09:44:17.724Z,19.57
2022-09-11T09:46:52.154Z,19.56
2022-09-11T09:49:33.493Z,19.59
2022-09-11T09:52:12.384Z,19.59
2022-09-11T09:54:40.776Z,19.59
2022-09-11T09:57:11.957Z,19.62
2022-09-11T10:00:15.544Z,19.63
2022-09-11T10:02:43.465Z,19.66
2022-09-11T10:05:23.350Z,19.82
2022-09-11T10:08:00.280Z,20.00
2022-09-11T10:10:32.507Z,20.12
2022-09-11T10:13:25.710Z,20.25
2022-09-11T10:15:59.887Z,20.38
2022-09-11T10:18:45.415Z,20.48
2022-09-11T10:21:13.414Z,20.61
2022-09-11T10:23:50.753Z,20.74
2022-09-11T10:26:32.500Z,20.83
2022-09-11T10:29:29.367Z,20.88
2022-09-11T10:32:03.163Z,20.85
2022-09-11T10:34:40.782Z,20.73
2022-09-11T10:37:20.965Z,20.65
2022-09-11T10:39:49.855Z,20.58
2022-09-11T10:42:27.863Z,20.49
2022-09-11T10:45:17.053Z,20.40
2022-09-11T10:47:53.778Z,20.41
2022-09-11T10:50:25.004Z,20.43
2022-09-11T10:53:04.558Z,20.44
2022-09-11T10:55:38.077Z,20.46
2022-09-11T10:58:11.354Z,20.63
2022-09-11T11:00:39.589Z,20.79
2022-09-11T11:03:12.671Z,20.93
2022-09-11T11:05:40.596Z,21.07
2022-09-11T11:08:37.751Z,21.11
2022-09-11T11:11:14.999Z,21.14
2022-09-11T11:14:02.044Z,21.23
2022-09-11T11:17:00.063Z,21.36
2022-09-11T11:19:44.285Z,21.50
2022-09-11T11:22:22.440Z,21.60
2022-09-11T11:25:41.739Z,21.70
2022-09-11T11:28:49.080Z,21.72
2022-09-11T11:31:47.765Z,21.66
2022-09-11T11:34:30.892Z,21.61
2022-09-11T11:37:25.614Z,21.59
2022-09-11T11:39:59.395Z,21.51
2022-09-11T11:42:35.234Z,21.39
2022-09-11T11:45:10.303Z,21.29
2022-09-11T11:47:43.136Z,21.18
2022-09-11T11:50:20.348Z,21.08
2022-09-11T11:53:07.561Z,20.99
2022-09-11T11:55:49.436Z,20.94
2022-09-11T11:58:37.352Z,20.96
2022-09-11T12:01:15.226Z,21.01
2022-09-11T12:03:51.260Z,21.07
2022-09-11T12:06:19.493Z,21.05
2022-09-11T12:08:48.524Z,20.96
2022-09-11T12:11:26.925Z,20.82
2022-09-11T12:13:56.160Z,20.69
2022-09-11T12:16:32.404Z,20.61
2022-09-11T12:19:19.999Z,20.61
2022-09-11T12:21:54.273Z,20.69
2022-09-11T12:24:47.386Z,20.79
2022-09-11T12:27:33.357Z,20.92
2022-09-11T12:30:20.513Z,21.01
2022-09-11T12:32:51.773Z,21.03
2022-09-11T12:35:38.710Z,21.00
2022-09-11T12:38:06.695Z,20.93
2022-09-11T12:40:53.600Z,20.86
2022-09-11T12:43:36.539Z,20.78
2022-09-11T12:46:13.061Z,20.73
2022-09-11T12:49:22.211Z,20.68
2022-09-11T12:51:59.570Z,20.66
2022-09-11T12:54:33.774Z,20.68
2022-09-11T12:57:07.384Z,20.69
2022-09-11T12:59:39.259Z,20.67
2022-09-11T13:02:31.514Z,20.64
2022-09-11T13:05:00.882Z,20.63
2022-09-11T13:07:43.240Z,20.68
2022-09-11T13:10:33.800Z,20.72
2022-09-11T13:13:07.506Z,20.75
2022-09-11T13:15:38.514Z,20.77
2022-09-11T13:18:34.434Z,20.84
2022-09-11T13:21:26.300Z,20.88
2022-09-11T13:24:00.394Z,20.89
2022-09-11T13:26:33.141Z,20.89
2022-09-11T13:29:02.054Z,20.90
2022-09-11T13:31:36.335Z,20.90
2022-09-11T13:34:12.215Z,20.92
2022-09-11T13:36:40.863Z,20.95
2022-09-11T13:39:10.411Z,20.95
2022-09-11T13:41:47.027Z,20.95
2022-09-11T13:44:35.541Z,20.89
2022-09-11T13:47:06.480Z,20.83
2022-09-11T13:49:37.507Z,20.83
2022-09-11T13:52:07.110Z,20.83
2022-09-11T13:54:41.438Z,20.86
2022-09-11T13:57:17.489Z,20.88
2022-09-11T13:59:49.146Z,20.89
2022-09-11T14:02:29.097Z,20.92
2022-09-11T14:05:21.145Z,20.97
2022-09-11T14:07:56.109Z,21.03
2022-09-11T14:10:30.680Z,21.01
2022-09-11T14:13:12.652Z,20.96
2022-09-11T14:15:44.787Z,20.88
2022-09-11T14:18:40.947Z,20.78
2022-09-11T14:21:16.130Z,20.68
2022-09-11T14:23:50.126Z,20.64
2022-09-11T14:26:20.818Z,20.62
2022-09-11T14:29:01.118Z,20.60
2022-09-11T14:31:38.270Z,20.55
2022-09-11T14:34:09.781Z,20.52
2022-09-11T14:37:05.688Z,20.54
2022-09-11T14:39:36.830Z,20.62
2022-09-11T14:42:10.372Z,20.72
2022-09-11T14:44:40.572Z,20.85
2022-09-11T14:47:29.186Z,20.92
2022-09-11T14:50:01.089Z,20.92
2022-09-11T14:52:30.346Z,20.89
2022-09-11T14:54:59.444Z,20.82
2022-09-11T14:57:32.590Z,20.74
2022-09-11T15:00:00.563Z,20.62
2022-09-11T15:02:29.515Z,20.52
2022-09-11T15:04:58.375Z,20.44
2022-09-11T15:07:27.762Z,20.36
2022-09-11T15:09:55.888Z,20.30
2022-09-11T15:12:23.903Z,20.25
2022-09-11T15:14:57.106Z,20.16
2022-09-11T15:17:31.602Z,20.05
2022-09-11T15:20:00.846Z,19.91
2022-09-11T15:22:29.243Z,19.81
2022-09-11T15:25:00.250Z,19.74
2022-09-11T15:27:28.376Z,19.65
2022-09-11T15:29:56.437Z,19.56
2022-09-11T15:32:24.611Z,19.50
2022-09-11T15:34:54.944Z,19.44
2022-09-11T15:37:24.423Z,19.38
2022-09-11T15:39:53.046Z,19.31
2022-09-11T15:42:21.089Z,19.26
2022-09-11T15:44:50.877Z,19.22
2022-09-11T15:47:18.990Z,19.17
2022-09-11T15:49:49.983Z,19.12
2022-09-11T15:52:18.066Z,19.08
2022-09-11T15:54:47.673Z,19.06
2022-09-11T15:57:16.814Z,19.03
2022-09-11T15:59:45.601Z,18.99
2022-09-11T16:02:13.794Z,18.93
2022-09-11T16:04:42.222Z,18.88
2022-09-11T16:07:10.200Z,18.82
2022-09-11T16:09:38.600Z,18.77
2022-09-11T16:12:07.998Z,18.71
2022-09-11T16:14:38.738Z,18.64
2022-09-11T16:17:08.301Z,18.59
2022-09-11T16:19:36.521Z,18.52
2022-09-11T16:22:06.220Z,18.45
2022-09-11T16:24:37.822Z,18.41
2022-09-11T16:27:08.624Z,18.37
2022-09-11T16:30:15.609Z,18.33
2022-09-11T16:32:32.001Z,18.28
2022-09-11T16:35:00.261Z,18.23
2022-09-11T16:37:28.649Z,18.20
2022-09-11T16:39:56.812Z,18.16
2022-09-11T16:42:26.290Z,18.11
2022-09-11T16:44:54.328Z,18.07
2022-09-11T16:47:23.078Z,18.02
2022-09-11T16:50:06.507Z,17.95
2022-09-11T16:52:36.027Z,17.88
2022-09-11T16:55:06.752Z,17.83
2022-09-11T16:57:35.097Z,17.77
2022-09-11T17:00:05.432Z,17.73
2022-09-11T17:02:34.466Z,17.67
2022-09-11T17:05:02.499Z,17.61
2022-09-11T17:07:32.233Z,17.56
2022-09-11T17:10:00.287Z,17.50
2022-09-11T17:12:28.317Z,17.44
2022-09-11T17:14:56.446Z,17.37
2022-09-11T17:17:24.335Z,17.27
2022-09-11T17:19:52.288Z,17.21
2022-09-11T17:22:20.304Z,17.15
2022-09-11T17:24:48.382Z,17.10
2022-09-11T17:27:16.657Z,17.04
2022-09-11T17:29:45.234Z,16.98
2022-09-11T17:32:29.129Z,16.92
2022-09-11T17:34:58.712Z,16.84
2022-09-11T17:37:28.288Z,16.77
2022-09-11T17:39:56.536Z,16.72
2022-09-11T17:42:26.685Z,16.66
2022-09-11T17:44:54.990Z,16.61
2022-09-11T17:47:23.180Z,16.55
2022-09-11T17:49:51.206Z,16.49
2022-09-11T17:52:20.421Z,16.42
2022-09-11T17:54:49.183Z,16.37
2022-09-11T17:57:18.127Z,16.35
2022-09-11T17:59:51.838Z,16.33
2022-09-11T18:02:20.134Z,16.28
2022-09-11T18:04:48.361Z,16.22
2022-09-11T18:07:17.981Z,16.17
2022-09-11T18:09:46.029Z,16.13
2022-09-11T18:12:14.979Z,16.09
2022-09-11T18:14:43.384Z,16.03
2022-09-11T18:17:11.484Z,16.01
2022-09-11T18:19:39.534Z,15.99
2022-09-11T18:22:07.487Z,15.99
2022-09-11T18:24:35.504Z,15.99
2022-09-11T18:27:03.789Z,15.98
2022-09-11T18:29:31.992Z,15.98
2022-09-11T18:32:00.549Z,15.98
2022-09-11T18:34:28.729Z,15.99
2022-09-11T18:36:57.126Z,16.01
2022-09-11T18:39:25.988Z,16.04
2022-09-11T18:41:54.176Z,16.07
2022-09-11T18:44:25.327Z,16.09
2022-09-11T18:46:54.424Z,16.12
2022-09-11T18:49:23.591Z,16.15
2022-09-11T18:51:52.154Z,16.17
2022-09-11T18:54:21.479Z,16.18
2022-09-11T18:56:50.695Z,16.16
2022-09-11T18:59:20.358Z,16.11
2022-09-11T19:01:48.804Z,16.09
2022-09-11T19:04:17.308Z,16.06
2022-09-11T19:06:46.751Z,16.04
2022-09-11T19:09:14.929Z,16.02
2022-09-11T19:11:43.120Z,15.99
2022-09-11T19:14:13.018Z,15.98
2022-09-11T19:16:41.365Z,15.97
2022-09-11T19:19:10.226Z,15.95
2022-09-11T19:21:38.592Z,15.94
2022-09-11T19:24:07.829Z,15.94
2022-09-11T19:26:39.260Z,15.93
2022-09-11T19:29:08.988Z,15.93
2022-09-11T19:31:39.603Z,15.94
2022-09-11T19:34:12.082Z,15.94
2022-09-11T19:36:41.449Z,15.92
2022-09-11T19:39:10.535Z,15.90
2022-09-11T19:41:39.723Z,15.87
2022-09-11T19:44:12.250Z,15.85
2022-09-11T19:46:41.767Z,15.83
2022-09-11T19:49:11.411Z,15.77
2022-09-11T19:51:42.533Z,15.68
2022-09-11T19:54:14.463Z,15.62
2022-09-11T19:56:44.562Z,15.56
2022-09-11T19:59:14.486Z,15.52
2022-09-11T20:01:43.435Z,15.48
2022-09-11T20:04:12.490Z,15.46
2022-09-11T20:06:40.621Z,15.46
2022-09-11T20:11:57.556Z,15.38
2022-09-11T20:14:26.186Z,15.35
2022-09-11T20:16:54.102Z,15.31
2022-09-11T20:19:22.219Z,15.25
2022-09-11T20:21:50.709Z,15.20
2022-09-11T20:24:20.070Z,15.15
2022-09-11T20:26:48.082Z,15.08
2022-09-11T20:29:16.342Z,15.05
2022-09-11T20:31:47.834Z,14.98
2022-09-11T20:34:22.099Z,14.93
2022-09-11T20:36:50.137Z,14.89
2022-09-11T20:39:20.675Z,14.85
2022-09-11T20:41:48.663Z,14.81
2022-09-11T20:44:17.231Z,14.80
2022-09-11T20:46:47.612Z,14.78
2022-09-11T20:49:16.310Z,14.74
2022-09-11T20:51:44.310Z,14.71
2022-09-11T20:54:12.460Z,14.67
2022-09-11T20:56:40.481Z,14.66
2022-09-11T20:59:08.388Z,14.64
2022-09-11T21:01:36.437Z,14.64
2022-09-11T21:04:05.359Z,14.64
2022-09-11T21:06:35.553Z,14.64
2022-09-11T21:09:07.583Z,14.62
2022-09-11T21:11:37.282Z,14.59
2022-09-11T21:14:06.659Z,14.58
2022-09-11T21:16:34.784Z,14.57
2022-09-11T21:19:05.375Z,14.57
2022-09-11T21:21:35.942Z,14.58
2022-09-11T21:24:06.267Z,14.59
2022-09-11T21:26:35.193Z,14.58
2022-09-11T21:29:07.300Z,14.59
2022-09-11T21:31:38.521Z,14.60
2022-09-11T21:34:06.655Z,14.60
2022-09-11T21:36:36.007Z,14.60
2022-09-11T21:39:04.929Z,14.58
2022-09-11T21:41:32.963Z,14.56
2022-09-11T21:44:01.154Z,14.53
2022-09-11T21:46:29.104Z,14.47
2022-09-11T21:48:57.103Z,14.43
2022-09-11T21:51:25.139Z,14.40
2022-09-11T21:53:59.023Z,14.38
2022-09-11T21:56:30.466Z,14.35
2022-09-11T21:58:59.740Z,14.32
2022-09-11T22:01:29.031Z,14.30
2022-09-11T22:03:58.375Z,14.30
2022-09-11T22:06:27.273Z,14.30
2022-09-11T22:08:56.303Z,14.27
2022-09-11T22:11:25.993Z,14.24
2022-09-11T22:13:54.994Z,14.20
2022-09-11T22:16:23.642Z,14.19
2022-09-11T22:18:53.774Z,14.20
2022-09-11T22:21:21.972Z,14.19
2022-09-11T22:23:50.214Z,14.19
2022-09-11T22:26:21.428Z,14.18
2022-09-11T22:28:49.913Z,14.18
2022-09-11T22:31:24.555Z,14.18
2022-09-11T22:33:54.263Z,14.19
2022-09-11T22:36:28.356Z,14.19
2022-09-11T22:38:56.732Z,14.19
2022-09-11T22:41:26.190Z,14.18
2022-09-11T22:43:54.308Z,14.17
2022-09-11T22:46:23.983Z,14.17
2022-09-11T22:48:53.427Z,14.17
2022-09-11T22:51:22.170Z,14.17
2022-09-11T22:53:51.112Z,14.17
2022-09-11T22:56:19.095Z,14.16
2022-09-11T22:58:47.698Z,14.15
2022-09-11T23:01:21.705Z,14.13
2022-09-11T23:03:52.704Z,14.10
2022-09-11T23:06:40.552Z,14.07
2022-09-11T23:09:13.402Z,14.04
2022-09-11T23:11:41.450Z,14.03
2022-09-11T23:14:14.156Z,14.04
2022-09-11T23:16:42.981Z,14.06
2022-09-11T23:19:14.076Z,14.08
2022-09-11T23:21:42.533Z,14.09
2022-09-11T23:24:14.543Z,14.08
2022-09-11T23:26:44.164Z,14.07
2022-09-11T23:29:13.041Z,14.08
2022-09-11T23:31:41.656Z,14.11
2022-09-11T23:34:14.068Z,14.11
2022-09-11T23:36:42.485Z,14.09
2022-09-11T23:39:10.613Z,14.10
2022-09-11T23:41:39.258Z,14.12
2022-09-11T23:44:07.668Z,14.12
2022-09-11T23:46:35.664Z,14.14
2022-09-11T23:49:04.142Z,14.15
2022-09-11T23:51:32.156Z,14.16
2022-09-11T23:54:00.096Z,14.16
2022-09-11T23:56:28.171Z,14.17
2022-09-11T23:58:56.154Z,14.17
